Time;durP1;ratioP1;P1;durP2;ratioP2;P2;SDS_P1;SDS_P2;PMS_P1;PMS_P2;Temp;Humidity;BMP_temperature;BMP_pressure;BME280_temperature;BME280_humidity;BME280_pressure;Samples;Min_cycle;Max_cycle;Signal;HPM_P1;HPM_P2
2022/11/19 00:00:49;;;;;;;7.50;2.90;;;;;;;10.26;100.00;98445.34;6243227;22;20012;-81
2022/11/19 00:03:17;;;;;;;13.50;2.67;;;;;;;10.47;100.00;98436.38;6242186;23;20443;-82
2022/11/19 00:05:45;;;;;;;5.95;3.53;;;;;;;10.45;100.00;98448.13;6242069;23;20427;-81
2022/11/19 00:08:15;;;;;;;12.70;2.78;;;;;;;10.37;100.00;98447.31;6244223;22;20018;-81
2022/11/19 00:10:41;;;;;;;13.30;2.67;;;;;;;10.23;100.00;98451.78;6243505;22;20012;-80
2022/11/19 00:13:07;;;;;;;10.82;2.20;;;;;;;10.27;100.00;98457.44;6243266;22;20023;-80
2022/11/19 00:15:34;;;;;;;7.90;2.53;;;;;;;10.41;100.00;98448.53;6243006;22;20012;-81
2022/11/19 00:18:01;;;;;;;12.27;2.65;;;;;;;10.45;100.00;98459.41;6243392;22;20035;-80
2022/11/19 00:20:27;;;;;;;7.15;1.90;;;;;;;10.62;100.00;98448.44;6243025;22;20011;-80
2022/11/19 00:22:54;;;;;;;12.23;3.28;;;;;;;10.71;100.00;98463.75;6191813;23;1153310;-81
2022/11/19 00:25:20;;;;;;;18.23;3.50;;;;;;;10.58;100.00;98455.94;6243582;23;20051;-80
2022/11/19 00:27:46;;;;;;;5.65;2.28;;;;;;;10.84;100.00;98467.34;6242979;23;20012;-82
2022/11/19 00:30:13;;;;;;;8.57;2.35;;;;;;;10.65;100.00;98469.84;6245086;22;20016;-81
2022/11/19 00:32:38;;;;;;;6.07;2.25;;;;;;;10.59;100.00;98475.13;6244932;23;20019;-81
2022/11/19 00:35:05;;;;;;;7.45;2.42;;;;;;;10.39;100.00;98476.75;6243798;23;20066;-83
2022/11/19 00:37:30;;;;;;;7.43;2.58;;;;;;;10.64;100.00;98476.09;6243673;23;20008;-82
2022/11/19 00:39:56;;;;;;;11.55;2.30;;;;;;;10.60;100.00;98468.84;6244947;22;20082;-82
2022/11/19 00:42:23;;;;;;;12.40;2.67;;;;;;;10.73;100.00;98475.84;6244161;23;20448;-82
2022/11/19 00:44:48;;;;;;;8.88;2.78;;;;;;;10.56;100.00;98468.44;6244208;22;20008;-84
2022/11/19 00:47:14;;;;;;;13.30;3.50;;;;;;;10.34;100.00;98481.03;6243033;23;20016;-80
2022/11/19 00:49:40;;;;;;;15.35;2.90;;;;;;;10.75;100.00;98468.56;6244355;22;20008;-82
2022/11/19 00:52:07;;;;;;;8.73;2.50;;;;;;;10.23;100.00;98474.59;6244457;22;20521;-81
2022/11/19 00:54:33;;;;;;;8.32;3.25;;;;;;;10.08;100.00;98469.59;6244711;22;20058;-81
2022/11/19 00:56:58;;;;;;;8.23;2.97;;;;;;;9.96;100.00;98474.66;6242936;23;20015;-81
2022/11/19 00:59:24;;;;;;;16.17;2.55;;;;;;;10.25;100.00;98467.34;6244568;22;20004;-82
2022/11/19 01:01:50;;;;;;;15.88;2.45;;;;;;;10.39;100.00;98471.50;6244984;22;20062;-82
2022/11/19 01:04:15;;;;;;;9.43;2.40;;;;;;;10.14;100.00;98477.44;6245089;22;20446;-82
2022/11/19 01:06:41;;;;;;;13.18;2.58;;;;;;;10.20;100.00;98477.63;6245039;23;20008;-83
2022/11/19 01:09:06;;;;;;;13.93;2.15;;;;;;;10.22;100.00;98476.41;6244847;22;20008;-81
2022/11/19 01:11:35;;;;;;;6.03;2.15;;;;;;;10.02;100.00;98481.69;6245114;22;20039;-82
2022/11/19 01:14:01;;;;;;;11.40;2.53;;;;;;;10.29;100.00;98487.69;6244997;22;20103;-80
2022/11/19 01:16:40;;;;;;;11.30;2.63;;;;;;;10.14;100.00;98501.03;6245113;22;20012;-80
2022/11/19 01:19:09;;;;;;;12.98;2.45;;;;;;;10.32;100.00;98499.59;6243918;23;20011;-81
2022/11/19 01:21:36;;;;;;;12.43;3.92;;;;;;;10.29;100.00;98492.13;6243361;23;20442;-81
2022/11/19 01:24:03;;;;;;;10.57;3.00;;;;;;;10.19;100.00;98492.56;6271962;22;20507;-81
2022/11/19 01:26:29;;;;;;;9.27;2.80;;;;;;;10.34;100.00;98505.44;6275382;22;20050;-81
2022/11/19 01:28:56;;;;;;;10.13;2.42;;;;;;;10.43;100.00;98493.75;6275013;22;20018;-82
2022/11/19 01:31:25;;;;;;;14.43;2.63;;;;;;;10.44;100.00;98510.28;6275573;22;20011;-82
2022/11/19 01:33:51;;;;;;;10.23;2.33;;;;;;;10.10;100.00;98505.09;6275699;22;20094;-82
2022/11/19 01:36:19;;;;;;;10.40;3.70;;;;;;;10.25;100.00;98509.31;6275966;22;20012;-82
2022/11/19 01:38:51;;;;;;;9.23;2.22;;;;;;;10.36;100.00;98506.03;6248188;22;20061;-82
2022/11/19 01:41:22;;;;;;;9.85;2.58;;;;;;;10.10;100.00;98510.34;6275591;22;20018;-81
2022/11/19 01:43:53;;;;;;;7.88;1.73;;;;;;;10.15;100.00;98513.13;6275759;22;20069;-81
2022/11/19 01:46:21;;;;;;;10.48;2.10;;;;;;;10.14;100.00;98516.78;6248836;22;20420;-80
2022/11/19 01:49:00;;;;;;;5.22;1.90;;;;;;;10.36;100.00;98513.91;6275673;22;20043;-81
2022/11/19 01:51:44;;;;;;;8.05;2.00;;;;;;;10.06;100.00;98517.00;6275568;22;20007;-80
2022/11/19 01:54:28;;;;;;;10.23;2.83;;;;;;;9.93;100.00;98512.59;6248526;22;20011;-81
2022/11/19 01:56:55;;;;;;;;;;;;;;;10.27;100.00;98515.16;6248676;22;20384;-81
2022/11/19 01:59:22;;;;;;;9.73;2.10;;;;;;;10.23;100.00;98517.38;6248507;22;19907;-81
2022/11/19 02:01:48;;;;;;;6.30;2.10;;;;;;;9.95;100.00;98517.59;6275908;22;20098;-80
2022/11/19 02:04:16;;;;;;;11.98;2.30;;;;;;;10.10;100.00;98522.63;6275417;22;20039;-82
2022/11/19 02:06:43;;;;;;;12.05;2.58;;;;;;;10.08;100.00;98533.34;6248412;22;20103;-81
2022/11/19 02:09:09;;;;;;;12.40;3.05;;;;;;;10.06;100.00;98527.50;6275773;22;20011;-83
2022/11/19 02:11:35;;;;;;;16.27;4.22;;;;;;;10.07;100.00;98531.72;6275340;22;20092;-82
2022/11/19 02:14:15;;;;;;;14.35;3.00;;;;;;;10.14;100.00;98542.22;6248758;22;20448;-83
2022/11/19 02:17:21;;;;;;;10.98;2.65;;;;;;;10.06;100.00;98529.28;6248104;22;20434;-81
2022/11/19 02:20:11;;;;;;;14.63;3.13;;;;;;;10.02;100.00;98544.63;6222592;22;20035;-82
2022/11/19 02:22:54;;;;;;;12.40;4.45;;;;;;;9.99;100.00;98534.53;6275316;22;20018;-80
2022/11/19 02:25:48;;;;;;;11.95;2.80;;;;;;;10.19;100.00;98534.53;6248294;22;20039;-80
2022/11/19 02:28:46;;;;;;;11.93;2.97;;;;;;;10.20;100.00;98543.19;6222869;22;20015;-81
2022/11/19 02:31:38;;;;;;;12.10;2.70;;;;;;;10.19;100.00;98544.19;6248078;22;20007;-80
2022/11/19 02:34:12;;;;;;;6.20;2.33;;;;;;;10.02;100.00;98549.84;6248344;22;20008;-81
2022/11/19 02:36:47;;;;;;;16.15;2.83;;;;;;;10.12;100.00;98555.50;6248500;22;20082;-81
2022/11/19 02:39:25;;;;;;;12.07;2.67;;;;;;;10.22;100.00;98554.28;6275158;22;20434;-81
2022/11/19 02:42:03;;;;;;;11.35;2.53;;;;;;;10.27;100.00;98549.25;6275668;22;20494;-82
2022/11/19 02:45:01;;;;;;;15.20;2.83;;;;;;;10.05;100.00;98549.47;6222894;22;20307;-80
2022/11/19 02:47:39;;;;;;;10.52;3.78;;;;;;;10.24;100.00;98542.59;6248053;22;20015;-82
2022/11/19 02:50:10;;;;;;;12.13;2.63;;;;;;;10.36;100.00;98545.38;6247962;22;20023;-81
2022/11/19 02:52:38;;;;;;;13.63;3.03;;;;;;;10.49;100.00;98554.28;6248269;22;20377;-81
2022/11/19 02:55:04;;;;;;;9.35;2.97;;;;;;;10.62;100.00;98543.75;6247896;22;20011;-80
2022/11/19 02:57:30;;;;;;;14.45;2.95;;;;;;;10.73;100.00;98552.81;6275305;22;20007;-81
2022/11/19 03:05:38;;;;;;;10.88;2.63;;;;;;;10.73;100.00;98544.09;6275202;22;20007;-81
2022/11/19 03:08:04;;;;;;;9.07;2.20;;;;;;;10.62;100.00;98542.94;6274961;22;20083;-81
2022/11/19 03:10:41;;;;;;;9.77;2.08;;;;;;;10.86;100.00;98544.06;6274910;22;20007;-81
2022/11/19 03:19:05;;;;;;;9.82;2.10;;;;;;;10.80;100.00;98547.50;6248229;22;20035;-82
2022/11/19 03:21:38;;;;;;;10.27;2.05;;;;;;;10.79;100.00;98553.75;6274656;22;20396;-81
2022/11/19 03:24:33;;;;;;;10.25;1.85;;;;;;;10.90;100.00;98554.94;6274705;22;20043;-82
2022/11/19 03:27:07;;;;;;;6.78;1.70;;;;;;;10.88;100.00;98552.53;6270541;22;20019;-81
2022/11/19 03:29:37;;;;;;;6.40;2.08;;;;;;;10.80;100.00;98566.69;6247816;22;20008;-82
2022/11/19 03:32:09;;;;;;;8.48;1.80;;;;;;;11.00;100.00;98563.19;6248437;22;20007;-82
2022/11/19 03:34:37;;;;;;;9.98;2.40;;;;;;;11.02;100.00;98563.00;6274970;22;20058;-82
2022/11/19 03:37:06;;;;;;;6.82;2.10;;;;;;;10.96;100.00;98560.16;6248083;22;20086;-82
2022/11/19 03:39:35;;;;;;;8.43;2.28;;;;;;;11.17;100.00;98571.38;6274585;22;20019;-81
2022/11/19 03:42:04;;;;;;;10.10;1.90;;;;;;;11.10;100.00;98566.19;6275188;22;20007;-82
2022/11/19 03:44:39;;;;;;;3.75;1.63;;;;;;;11.17;100.00;98571.38;6275195;22;20015;-83
2022/11/19 03:47:11;;;;;;;7.60;1.90;;;;;;;10.90;100.00;98570.69;6247757;22;20070;-82
2022/11/19 03:49:42;;;;;;;5.80;1.90;;;;;;;11.06;100.00;98572.84;6274493;22;20012;-81
2022/11/19 03:52:18;;;;;;;6.40;2.17;;;;;;;11.03;100.00;98569.84;6247446;22;20011;-81
2022/11/19 03:54:44;;;;;;;11.55;2.13;;;;;;;10.89;100.00;98569.91;6274936;22;20007;-81
2022/11/19 03:57:13;;;;;;;9.43;2.40;;;;;;;10.69;100.00;98576.03;6274804;22;20453;-80
2022/11/19 03:59:38;;;;;;;11.05;2.47;;;;;;;10.64;100.00;98575.03;6274887;22;20442;-80
2022/11/19 04:02:07;;;;;;;10.80;2.17;;;;;;;10.82;100.00;98569.13;6247670;22;20008;-80
2022/11/19 04:04:38;;;;;;;12.05;2.20;;;;;;;10.83;100.00;98582.03;6274753;22;20015;-80
2022/11/19 04:07:13;;;;;;;9.32;2.28;;;;;;;10.83;100.00;98571.53;6247272;22;20020;-80
2022/11/19 04:09:41;;;;;;;11.45;2.53;;;;;;;10.86;100.00;98578.19;6273918;22;20011;-80
2022/11/19 04:12:13;;;;;;;8.27;3.00;;;;;;;10.85;100.00;98584.47;6274194;22;20007;-81
2022/11/19 04:14:39;;;;;;;10.60;2.23;;;;;;;11.02;100.00;98578.75;6274246;22;20430;-80
2022/11/19 04:17:04;;;;;;;7.00;2.30;;;;;;;10.93;100.00;98581.59;6274649;22;20095;-80
2022/11/19 04:19:30;;;;;;;8.65;2.22;;;;;;;10.86;100.00;98597.38;6247690;22;20007;-81
2022/11/19 04:21:56;;;;;;;8.93;2.28;;;;;;;10.85;100.00;98589.72;6247188;22;20022;-81
2022/11/19 04:24:21;;;;;;;6.10;1.80;;;;;;;10.71;100.00;98584.50;6274722;22;20094;-80
2022/11/19 04:26:47;;;;;;;7.72;1.75;;;;;;;11.03;100.00;98578.53;6247504;22;20012;-80
2022/11/19 04:29:13;;;;;;;6.90;1.67;;;;;;;11.03;100.00;98580.34;6276055;22;20012;-80
2022/11/19 04:31:39;;;;;;;4.00;1.75;;;;;;;11.31;100.00;98592.34;6276103;22;20015;-80
2022/11/19 04:34:05;;;;;;;6.38;2.67;;;;;;;11.08;100.00;98588.41;6249031;22;20016;-82
2022/11/19 04:36:31;;;;;;;9.38;1.95;;;;;;;10.97;100.00;98598.53;6275922;22;20057;-81
2022/11/19 04:38:56;;;;;;;4.85;1.90;;;;;;;11.00;100.00;98602.56;6249204;22;20334;-81
2022/11/19 04:41:22;;;;;;;7.00;1.70;;;;;;;11.19;100.00;98614.00;6276300;22;20007;-80
2022/11/19 04:43:48;;;;;;;3.92;1.73;;;;;;;11.10;100.00;98617.91;6276389;22;20035;-81
2022/11/19 04:46:13;;;;;;;8.35;1.70;;;;;;;11.31;100.00;98616.00;6276464;22;20046;-82
2022/11/19 04:48:39;;;;;;;5.55;1.88;;;;;;;11.35;100.00;98619.81;6275906;22;20015;-81
2022/11/19 04:51:04;;;;;;;6.07;1.98;;;;;;;11.49;100.00;98631.88;6276005;22;20018;-82
2022/11/19 04:53:30;;;;;;;5.72;1.63;;;;;;;11.17;100.00;98629.16;6276333;22;20078;-84
2022/11/19 04:55:56;;;;;;;3.45;1.55;;;;;;;11.46;100.00;98631.47;6276174;22;20038;-84
2022/11/19 04:58:22;;;;;;;7.95;1.80;;;;;;;11.07;100.00;98634.06;6276530;22;20034;-83
2022/11/19 05:00:48;;;;;;;5.15;1.90;;;;;;;11.41;100.00;98632.91;6276251;22;20319;-84
2022/11/19 05:03:13;;;;;;;8.00;1.83;;;;;;;11.49;100.00;98642.38;6275873;22;20407;-83
2022/11/19 05:05:40;;;;;;;3.03;1.50;;;;;;;11.36;100.00;98643.25;6275510;22;20008;-83
2022/11/19 05:08:05;;;;;;;5.55;1.77;;;;;;;11.47;100.00;98644.41;6248629;22;20113;-82
2022/11/19 05:10:31;;;;;;;4.00;1.65;;;;;;;11.53;100.00;98637.50;6275926;22;20012;-83
2022/11/19 05:12:56;;;;;;;5.25;1.80;;;;;;;11.58;100.00;98638.47;6275558;22;20011;-82
2022/11/19 05:15:22;;;;;;;5.15;1.40;;;;;;;11.41;100.00;98648.69;6276039;22;20016;-83
2022/11/19 05:17:47;;;;;;;6.57;1.65;;;;;;;11.14;100.00;98645.34;6276215;22;20060;-82
2022/11/19 05:20:13;;;;;;;2.47;1.40;;;;;;;11.28;100.00;98636.41;6248954;22;20094;-83
2022/11/19 05:22:39;;;;;;;7.35;1.70;;;;;;;11.27;100.00;98647.94;6243684;23;20027;-82
2022/11/19 05:25:05;;;;;;;6.00;1.67;;;;;;;11.36;100.00;98653.75;6245350;23;20008;-83
2022/11/19 05:27:31;;;;;;;4.70;1.50;;;;;;;11.20;100.00;98665.56;6244777;22;20012;-82
2022/11/19 05:29:56;;;;;;;3.80;1.30;;;;;;;11.28;100.00;98667.94;6218635;23;20027;-83
2022/11/19 05:32:22;;;;;;;7.35;1.60;;;;;;;11.20;100.00;98665.56;6218175;23;20477;-83
2022/11/19 05:34:47;;;;;;;8.80;1.60;;;;;;;11.38;100.00;98666.69;6243138;23;20066;-82
2022/11/19 05:37:13;;;;;;;3.60;1.55;;;;;;;11.28;100.00;98661.88;6246470;22;20091;-84
2022/11/19 05:39:39;;;;;;;5.18;1.70;;;;;;;11.37;100.00;98654.56;6246434;22;20324;-84
2022/11/19 05:42:04;;;;;;;5.30;1.45;;;;;;;11.42;100.00;98649.50;6246218;23;20011;-82
2022/11/19 05:44:30;;;;;;;4.28;1.60;;;;;;;11.49;100.00;98659.97;6246520;22;20015;-83
2022/11/19 05:46:56;;;;;;;6.68;1.70;;;;;;;11.29;100.00;98643.28;6246060;22;20023;-83
2022/11/19 05:49:22;;;;;;;4.45;1.95;;;;;;;11.24;100.00;98650.97;6244214;23;20019;-82
2022/11/19 05:51:47;;;;;;;7.57;1.73;;;;;;;11.22;100.00;98657.44;6244477;23;20451;-83
2022/11/19 05:54:13;;;;;;;3.60;1.50;;;;;;;11.22;100.00;98676.66;6245253;22;20087;-83
2022/11/19 05:56:39;;;;;;;7.82;1.95;;;;;;;11.36;100.00;98679.22;6243639;23;20008;-84
2022/11/19 05:59:05;;;;;;;5.97;1.80;;;;;;;11.32;100.00;98676.22;6245508;22;20004;-83
2022/11/19 06:01:30;;;;;;;4.40;1.58;;;;;;;11.19;100.00;98663.91;6245248;23;20062;-83
2022/11/19 06:03:56;;;;;;;3.53;1.48;;;;;;;11.23;100.00;98677.44;6245048;22;20004;-83
2022/11/19 06:06:23;;;;;;;2.65;1.80;;;;;;;10.91;100.00;98688.66;6245070;22;20015;-83
2022/11/19 06:08:49;;;;;;;3.10;1.50;;;;;;;10.98;100.00;98678.94;6244818;22;20016;-83
2022/11/19 06:14:00;;;;;;;5.82;1.77;;;;;;;10.89;100.00;98669.69;6245196;22;20500;-84
2022/11/19 06:16:26;;;;;;;3.97;2.05;;;;;;;11.07;100.00;98678.72;6245437;22;20008;-82
2022/11/19 06:18:52;;;;;;;7.30;2.38;;;;;;;11.10;100.00;98680.94;6243848;23;20090;-83
2022/11/19 06:21:18;;;;;;;4.47;1.80;;;;;;;10.78;100.00;98673.75;6245313;22;20097;-84
2022/11/19 06:23:43;;;;;;;5.00;1.77;;;;;;;10.56;100.00;98689.72;6268185;22;20019;-84
2022/11/19 06:26:10;;;;;;;6.13;1.95;;;;;;;10.87;100.00;98671.69;6275595;22;20010;-84
2022/11/19 06:28:35;;;;;;;4.68;2.10;;;;;;;10.85;100.00;98669.28;6275868;22;20040;-82
2022/11/19 06:31:02;;;;;;;4.55;1.73;;;;;;;10.74;100.00;98676.97;6248372;22;20426;-82
2022/11/19 06:33:28;;;;;;;7.43;2.08;;;;;;;10.92;100.00;98674.50;6274959;22;20057;-83
2022/11/19 06:35:54;;;;;;;12.18;2.10;;;;;;;10.81;100.00;98675.16;6275685;22;20012;-82
2022/11/19 06:38:19;;;;;;;4.85;1.95;;;;;;;10.80;100.00;98689.28;6275427;22;20053;-80
2022/11/19 06:40:45;;;;;;;4.53;2.00;;;;;;;10.74;100.00;98680.41;6223340;22;20464;-84
2022/11/19 06:43:11;;;;;;;6.32;2.15;;;;;;;10.38;100.00;98681.63;6275756;22;20021;-84
2022/11/19 06:45:36;;;;;;;10.45;2.25;;;;;;;10.63;100.00;98681.84;6225539;22;20409;-82
2022/11/19 06:48:02;;;;;;;4.72;2.08;;;;;;;10.45;100.00;98685.06;6275422;22;20012;-82
2022/11/19 06:50:27;;;;;;;3.95;2.10;;;;;;;10.41;100.00;98682.03;6275653;22;20430;-83
2022/11/19 06:52:53;;;;;;;7.43;2.25;;;;;;;10.56;100.00;98681.03;6276294;22;20008;-83
2022/11/19 06:55:20;;;;;;;7.05;1.95;;;;;;;10.55;100.00;98689.91;6275737;22;20315;-83
2022/11/19 06:57:45;;;;;;;6.82;1.98;;;;;;;10.56;100.00;98681.03;6275875;22;20003;-83
2022/11/19 07:00:12;;;;;;;8.70;1.90;;;;;;;10.45;100.00;98679.81;6275870;22;20516;-83
2022/11/19 07:02:39;;;;;;;7.63;2.35;;;;;;;10.62;100.00;98680.22;6249420;22;20468;-84
2022/11/19 07:05:06;;;;;;;7.32;2.83;;;;;;;10.51;100.00;98684.25;6275642;22;20457;-83
2022/11/19 07:07:33;;;;;;;7.20;2.33;;;;;;;10.40;100.00;98674.34;6248852;22;20015;-81
2022/11/19 07:09:59;;;;;;;9.25;2.50;;;;;;;10.19;100.00;98659.59;6277664;22;20015;-84
2022/11/19 07:12:24;;;;;;;5.47;2.17;;;;;;;10.50;100.00;98671.34;6253012;22;20047;-82
2022/11/19 07:14:50;;;;;;;5.22;1.75;;;;;;;10.60;100.00;98676.97;6277115;22;19999;-82
2022/11/19 07:17:15;;;;;;;8.80;2.40;;;;;;;10.29;100.00;98675.75;6275198;22;20038;-82
2022/11/19 07:19:41;;;;;;;5.47;2.70;;;;;;;10.28;100.00;98685.44;6275544;22;20057;-82
2022/11/19 07:22:07;;;;;;;7.32;2.10;;;;;;;10.10;100.00;98683.41;6276072;22;20015;-83
2022/11/19 07:24:33;;;;;;;4.90;2.00;;;;;;;10.39;100.00;98675.34;6275941;22;20319;-83
2022/11/19 07:26:58;;;;;;;5.22;2.15;;;;;;;10.68;100.00;98673.34;6276078;22;20019;-84
2022/11/19 07:29:24;;;;;;;3.50;2.13;;;;;;;10.48;100.00;98673.38;6275985;22;20019;-86
2022/11/19 07:31:52;;;;;;;8.10;1.67;;;;;;;10.31;100.00;98668.50;6249619;22;20081;-84
2022/11/19 07:34:18;;;;;;;4.85;1.88;;;;;;;10.50;100.00;98687.09;6276898;22;20384;-85
2022/11/19 07:36:45;;;;;;;3.90;1.90;;;;;;;10.34;100.00;98683.81;6224482;22;20019;-86
2022/11/19 07:39:12;;;;;;;5.65;2.47;;;;;;;10.39;100.00;98699.75;6275812;22;20525;-85
2022/11/19 07:44:22;;;;;;;5.60;2.15;;;;;;;10.26;100.00;98708.44;6275637;22;20019;-85
2022/11/19 07:46:47;;;;;;;5.38;2.25;;;;;;;10.53;100.00;98707.69;6251243;22;20011;-87
2022/11/19 07:49:13;;;;;;;9.10;2.13;;;;;;;10.71;100.00;98714.94;6250607;22;20019;-88
2022/11/19 07:51:39;;;;;;;11.68;2.35;;;;;;;10.84;100.00;98719.38;6277722;22;20452;-86
2022/11/19 07:54:05;;;;;;;8.50;2.22;;;;;;;10.71;100.00;98730.69;6275812;22;20090;-85
2022/11/19 07:56:31;;;;;;;6.60;2.53;;;;;;;10.72;100.00;98727.06;6248000;22;20346;-84
2022/11/19 07:59:01;;;;;;;2.55;1.83;;;;;;;10.82;100.00;98721.41;6248116;22;20011;-83
2022/11/19 08:01:27;;;;;;;4.15;2.05;;;;;;;10.80;100.00;98739.16;6274816;22;20015;-82
2022/11/19 08:03:52;;;;;;;6.45;2.20;;;;;;;10.76;100.00;98730.06;6276418;22;20396;-82
2022/11/19 08:06:19;;;;;;;5.03;2.22;;;;;;;10.95;100.00;98731.88;6276733;22;20018;-82
2022/11/19 08:08:45;;;;;;;5.40;1.95;;;;;;;10.91;100.00;98728.03;6276329;22;20011;-82
2022/11/19 08:11:13;;;;;;;5.00;2.00;;;;;;;10.90;100.00;98739.56;6276150;22;20011;-82
2022/11/19 08:13:39;;;;;;;3.75;2.08;;;;;;;10.92;100.00;98742.78;6275957;22;20012;-81
2022/11/19 08:16:08;;;;;;;4.40;1.80;;;;;;;11.06;100.00;98742.78;6249139;22;20011;-82
2022/11/19 08:18:34;;;;;;;5.35;2.45;;;;;;;11.14;100.00;98750.44;6248464;22;20504;-83
2022/11/19 08:21:10;;;;;;;6.07;2.25;;;;;;;11.09;100.00;98748.41;6248184;22;20023;-82
2022/11/19 08:23:37;;;;;;;5.18;1.80;;;;;;;11.17;100.00;98764.97;6222926;22;20022;-82
2022/11/19 08:26:05;;;;;;;4.00;1.70;;;;;;;11.02;100.00;98767.84;6276787;22;20030;-81
2022/11/19 08:28:31;;;;;;;5.45;1.70;;;;;;;11.10;100.00;98760.56;6225219;22;20438;-82
2022/11/19 08:31:07;;;;;;;6.40;1.88;;;;;;;11.17;100.00;98771.03;6250277;22;20448;-83
2022/11/19 08:33:34;;;;;;;1.85;1.52;;;;;;;11.35;100.00;98766.94;6278120;22;20083;-81
2022/11/19 08:36:00;;;;;;;4.40;1.92;;;;;;;11.35;100.00;98774.84;6276584;22;20086;-82
2022/11/19 08:38:26;;;;;;;5.20;1.83;;;;;;;11.46;100.00;98771.59;6249335;22;20035;-82
2022/11/19 08:42:58;;;;;;;6.25;2.10;;;;;;;11.33;100.00;98772.44;6250507;22;20015;-82
2022/11/19 08:43:38;;;;;;;6.40;1.92;;;;;;;11.49;100.00;98773.78;6276710;22;20424;-82
2022/11/19 08:46:05;;;;;;;3.55;1.65;;;;;;;11.32;100.00;98770.81;6277247;22;20007;-82
2022/11/19 08:48:31;;;;;;;5.10;1.77;;;;;;;11.45;100.00;98767.34;6276584;22;20392;-83
2022/11/19 08:50:57;;;;;;;3.25;1.52;;;;;;;11.42;100.00;98773.00;6276612;22;20090;-84
2022/11/19 08:53:23;;;;;;;2.13;1.50;;;;;;;11.24;100.00;98777.09;6249372;22;20097;-83
2022/11/19 08:55:52;;;;;;;6.22;1.75;;;;;;;11.34;100.00;98773.22;6248736;22;20015;-82
2022/11/19 08:58:18;;;;;;;3.90;1.65;;;;;;;11.47;100.00;98767.13;6275964;22;20015;-83
2022/11/19 09:00:47;;;;;;;5.00;1.70;;;;;;;11.42;100.00;98757.25;6276414;22;20069;-83
2022/11/19 09:03:13;;;;;;;5.43;1.40;;;;;;;11.52;100.00;98765.50;6248733;22;20011;-83
2022/11/19 09:05:39;;;;;;;5.82;1.83;;;;;;;11.46;100.00;98771.59;6276086;22;20643;-82
2022/11/19 09:08:06;;;;;;;4.35;1.90;;;;;;;11.20;100.00;98760.13;6249033;22;20046;-84
2022/11/19 09:10:32;;;;;;;7.03;2.30;;;;;;;11.22;100.00;98758.09;6276078;22;20004;-82
2022/11/19 09:13:01;;;;;;;5.55;1.88;;;;;;;11.28;100.00;98751.19;6248783;22;20094;-82
2022/11/19 09:15:27;;;;;;;6.05;1.88;;;;;;;11.19;100.00;98753.22;6249004;22;20012;-82
2022/11/19 09:17:53;;;;;;;6.20;1.98;;;;;;;11.22;100.00;98760.72;6274337;22;20338;-82
2022/11/19 09:20:21;;;;;;;5.35;2.00;;;;;;;11.10;100.00;98757.94;6275912;22;20007;-82
2022/11/19 09:22:47;;;;;;;4.88;1.75;;;;;;;11.18;100.00;98762.13;6274929;22;20020;-82
2022/11/19 09:25:13;;;;;;;5.07;2.65;;;;;;;11.49;100.00;98763.28;6248559;22;20015;-83
2022/11/19 09:27:38;;;;;;;3.40;2.00;;;;;;;11.70;100.00;98769.28;6223849;22;20023;-82
2022/11/19 09:30:06;;;;;;;4.57;3.20;;;;;;;11.40;100.00;98765.31;6276064;22;20402;-82
2022/11/19 09:32:32;;;;;;;2.67;1.92;;;;;;;11.75;100.00;98771.28;6276274;22;20039;-82
2022/11/19 09:34:58;;;;;;;4.78;2.10;;;;;;;11.68;100.00;98779.19;6276630;22;21098;-84
2022/11/19 09:37:24;;;;;;;5.57;2.05;;;;;;;11.51;100.00;98773.59;6248885;22;20279;-84
2022/11/19 09:39:49;;;;;;;4.18;2.50;;;;;;;11.89;100.00;98782.53;6249079;22;20369;-84
2022/11/19 09:42:30;;;;;;;5.40;2.38;;;;;;;12.00;100.00;98780.06;6249052;22;20335;-84
2022/11/19 09:45:17;;;;;;;5.25;2.42;;;;;;;11.98;100.00;98776.84;6249531;22;20018;-84
2022/11/19 09:47:49;;;;;;;4.00;2.00;;;;;;;12.04;100.00;98791.00;6249139;22;20035;-86
2022/11/19 09:50:19;;;;;;;3.13;2.20;;;;;;;11.97;100.00;98790.19;6249145;22;20023;-87
2022/11/19 09:53:08;;;;;;;6.78;2.40;;;;;;;12.17;100.00;98789.31;6225189;22;20102;-87
2022/11/19 09:55:40;;;;;;;5.03;2.67;;;;;;;12.00;100.00;98795.06;6225635;22;20011;-87
2022/11/19 09:58:13;;;;;;;7.32;3.08;;;;;;;11.95;100.00;98786.97;6252152;22;20004;-86
2022/11/19 10:00:39;;;;;;;6.30;3.30;;;;;;;11.83;100.00;98779.75;6224728;22;20025;-84
2022/11/19 10:03:18;;;;;;;6.38;2.95;;;;;;;12.13;100.00;98781.84;6248094;22;20559;-85
2022/11/19 10:05:58;;;;;;;6.93;3.08;;;;;;;11.96;100.00;98775.41;6275701;22;20011;-85
2022/11/19 10:08:33;;;;;;;7.07;2.97;;;;;;;12.31;100.00;98784.81;6223735;22;20381;-83
2022/11/19 10:11:13;;;;;;;5.95;3.22;;;;;;;12.41;100.00;98788.56;6275596;22;20011;-84
2022/11/19 10:13:58;;;;;;;5.15;2.92;;;;;;;12.51;100.00;98788.09;6274575;22;20019;-83
2022/11/19 10:16:32;;;;;;;6.40;3.65;;;;;;;12.62;100.00;98791.88;6221778;22;20018;-82
2022/11/19 10:19:10;;;;;;;4.22;3.08;;;;;;;12.66;100.00;98785.16;6274941;22;20326;-82
2022/11/19 10:22:08;;;;;;;4.80;3.00;;;;;;;12.84;100.00;98794.94;6274929;22;20018;-82
2022/11/19 10:24:39;;;;;;;7.05;3.58;;;;;;;12.42;100.00;98782.28;6234594;22;20012;-83
2022/11/19 10:27:29;;;;;;;9.07;4.30;;;;;;;12.27;100.00;98794.94;6274715;22;20042;-83
2022/11/19 10:30:02;;;;;;;7.63;2.97;;;;;;;12.33;100.00;98794.06;6225992;22;20098;-82
2022/11/19 10:32:46;;;;;;;6.60;2.92;;;;;;;12.25;100.00;98802.22;6246542;22;20007;-80
2022/11/19 10:35:20;;;;;;;6.25;3.05;;;;;;;12.35;100.00;98796.50;6248018;22;20065;-81
2022/11/19 10:37:55;;;;;;;5.50;3.58;;;;;;;12.39;100.00;98809.03;6274287;22;20018;-81
2022/11/19 10:40:24;;;;;;;5.38;3.60;;;;;;;12.16;100.00;98811.38;6222042;22;20016;-79
2022/11/19 10:42:56;;;;;;;7.45;3.30;;;;;;;12.24;100.00;98800.63;6246910;22;20015;-82
2022/11/19 10:45:26;;;;;;;5.70;4.03;;;;;;;12.27;100.00;98808.09;6221988;22;20108;-81
2022/11/19 10:48:11;;;;;;;8.45;4.30;;;;;;;12.32;100.00;98796.94;6247631;22;20400;-81
2022/11/19 10:50:38;;;;;;;6.00;3.72;;;;;;;12.59;100.00;98808.09;6247549;22;20012;-82
2022/11/19 10:53:32;;;;;;;9.98;4.13;;;;;;;12.64;100.00;98805.63;6247500;22;20337;-81
2022/11/19 10:56:00;;;;;;;10.48;4.20;;;;;;;12.51;100.00;98800.44;6274442;22;20446;-80
2022/11/19 10:58:32;;;;;;;5.55;3.75;;;;;;;12.42;100.00;98799.91;6274716;22;20003;-81
2022/11/19 11:01:01;;;;;;;6.78;4.63;;;;;;;12.39;100.00;98787.97;6274823;22;20011;-83
2022/11/19 11:03:35;;;;;;;6.82;4.50;;;;;;;12.36;100.00;98798.13;6274727;22;20499;-81
2022/11/19 11:06:08;;;;;;;8.02;4.30;;;;;;;12.47;100.00;98794.00;6275203;22;20008;-82
2022/11/19 11:08:55;;;;;;;8.30;4.10;;;;;;;12.18;100.00;98801.44;6247590;22;20011;-81
2022/11/19 11:17:15;;;;;;;7.57;3.92;;;;;;;12.07;100.00;98789.75;6275013;22;20433;-82
2022/11/19 11:19:41;;;;;;;7.85;4.57;;;;;;;11.88;100.00;98791.44;6274544;22;20003;-82
2022/11/19 11:22:08;;;;;;;7.82;4.97;;;;;;;11.55;100.00;98787.94;6273755;22;20494;-83
2022/11/19 11:24:37;;;;;;;7.57;5.30;;;;;;;11.66;100.00;98791.75;6274717;22;20012;-83
2022/11/19 11:27:29;;;;;;;10.68;5.60;;;;;;;11.78;100.00;98792.69;6274725;22;20331;-82
2022/11/19 11:30:10;;;;;;;8.82;5.35;;;;;;;11.77;100.00;98793.72;6274368;22;20012;-82
2022/11/19 11:32:37;;;;;;;8.15;5.50;;;;;;;11.85;100.00;98785.59;6247269;22;20089;-82
2022/11/19 11:35:28;;;;;;;9.93;5.32;;;;;;;11.89;100.00;98782.53;6274518;22;20065;-83
2022/11/19 11:37:53;;;;;;;8.77;5.60;;;;;;;11.57;100.00;98770.91;6273622;22;20007;-84
2022/11/19 11:40:22;;;;;;;6.85;5.68;;;;;;;11.73;100.00;98763.59;6222924;22;20015;-83
2022/11/19 11:42:50;;;;;;;9.98;6.05;;;;;;;11.67;100.00;98795.97;6247383;22;20015;-84
2022/11/19 11:45:27;;;;;;;8.52;5.38;;;;;;;11.64;100.00;98765.66;6247417;22;20057;-83
2022/11/19 11:47:55;;;;;;;8.40;6.25;;;;;;;11.70;100.00;98787.69;6246961;22;20480;-84
2022/11/19 11:50:26;;;;;;;8.07;6.00;;;;;;;11.74;100.00;98775.72;6246861;22;20019;-83
2022/11/19 11:52:54;;;;;;;8.23;5.55;;;;;;;11.81;100.00;98778.31;6247563;22;20015;-84
2022/11/19 11:55:23;;;;;;;10.23;6.32;;;;;;;11.91;100.00;98785.78;6273788;22;20015;-84
2022/11/19 11:57:53;;;;;;;9.15;5.60;;;;;;;11.85;100.00;98785.59;6248417;22;20446;-85